Time;durP1;ratioP1;P1;durP2;ratioP2;P2;SDS_P1;SDS_P2;PMS_P1;PMS_P2;Temp;Humidity;BMP_temperature;BMP_pressure;BME280_temperature;BME280_humidity;BME280_pressure;Samples;Min_cycle;Max_cycle;Signal;HPM_P1;HPM_P2
2023/11/18 00:00:11;;;;;;;45.40;21.65;;;5.60;99.90;;;6.02;74.12;101383.72;5099327;28;20252;-83
2023/11/18 00:02:39;;;;;;;38.97;20.25;;;5.60;99.90;;;6.02;73.88;101382.88;5098746;28;20135;-84
2023/11/18 00:05:08;;;;;;;37.42;21.02;;;5.60;99.90;;;5.98;73.35;101387.66;5087331;28;20050;-83
2023/11/18 00:07:35;;;;;;;40.80;21.13;;;5.50;99.90;;;5.89;73.31;101385.91;5079884;28;20076;-84
2023/11/18 00:10:04;;;;;;;42.70;21.75;;;5.50;99.90;;;5.87;73.54;101385.25;5081122;28;20029;-84
2023/11/18 00:12:34;;;;;;;42.45;21.83;;;5.50;99.90;;;5.88;73.81;101379.81;5095705;28;20050;-83
2023/11/18 00:15:03;;;;;;;37.60;19.52;;;5.50;99.90;;;5.89;73.89;101392.03;5087931;28;20049;-83
2023/11/18 00:17:31;;;;;;;40.42;20.65;;;5.50;99.90;;;5.88;73.60;101390.38;5083740;28;20067;-84
2023/11/18 00:19:59;;;;;;;38.10;20.08;;;5.50;99.90;;;5.86;73.63;101392.38;5099379;28;20086;-84
2023/11/18 00:22:27;;;;;;;39.50;20.00;;;5.40;99.90;;;5.88;73.46;101397.50;5100052;28;20115;-84
2023/11/18 00:24:55;;;;;;;40.40;19.98;;;5.50;99.90;;;5.86;73.58;101392.38;5099064;28;20533;-83
2023/11/18 00:27:24;;;;;;;40.10;20.30;;;5.40;99.90;;;5.87;73.54;101382.63;5099873;28;20044;-83
2023/11/18 00:29:54;;;;;;;37.70;19.92;;;5.40;99.90;;;5.87;73.72;101386.09;5093253;28;20037;-83
2023/11/18 00:32:21;;;;;;;38.28;19.30;;;5.40;99.90;;;5.86;73.35;101392.38;5099993;28;20045;-84
2023/11/18 00:34:48;;;;;;;38.45;20.02;;;5.40;99.90;;;5.83;73.44;101391.84;5091021;28;20080;-83
2023/11/18 00:37:17;;;;;;;38.17;18.85;;;5.40;99.90;;;5.80;73.18;101390.34;5099446;28;20066;-83
2023/11/18 00:39:44;;;;;;;38.13;19.88;;;5.40;99.90;;;5.81;73.51;101388.53;5099312;28;20040;-82
2023/11/18 00:42:12;;;;;;;37.35;19.52;;;5.40;99.90;;;5.79;73.33;101380.75;5097600;28;20044;-84
2023/11/18 00:44:39;;;;;;;37.80;19.98;;;5.40;99.90;;;5.75;73.22;101375.91;5092609;28;20036;-83
2023/11/18 00:47:08;;;;;;;37.17;19.08;;;5.30;99.90;;;5.71;72.67;101371.91;5089536;28;20039;-83
2023/11/18 00:49:35;;;;;;;35.15;18.65;;;5.20;99.90;;;5.69;72.91;101374.72;5093692;28;20045;-83
2023/11/18 00:52:04;;;;;;;35.30;18.00;;;5.20;99.90;;;5.66;72.60;101370.59;5091528;28;20079;-83
2023/11/18 00:54:31;;;;;;;35.63;18.02;;;5.20;99.90;;;5.63;72.58;101368.25;5092093;28;20046;-83
2023/11/18 00:56:58;;;;;;;34.28;18.10;;;5.20;99.90;;;5.57;72.50;101363.59;5107001;28;20048;-83
2023/11/18 00:59:26;;;;;;;32.55;17.92;;;5.20;99.90;;;5.53;72.10;101364.88;5107876;28;20036;-83
2023/11/18 01:01:54;;;;;;;35.40;18.48;;;5.10;99.90;;;5.50;72.02;101359.91;5104532;28;20071;-83
2023/11/18 01:04:22;;;;;;;30.08;16.90;;;5.10;99.90;;;5.50;71.86;101359.06;5107013;28;20036;-83
2023/11/18 01:06:51;;;;;;;33.33;17.13;;;5.30;99.90;;;5.48;71.66;101367.19;5111877;28;20046;-83
2023/11/18 01:09:19;;;;;;;32.03;16.77;;;5.00;99.90;;;5.51;71.90;101368.66;5101569;28;20040;-82
2023/11/18 01:11:47;;;;;;;29.15;15.15;;;5.00;99.90;;;5.54;72.49;101365.72;5081736;28;20055;-83
2023/11/18 01:14:13;;;;;;;31.33;15.15;;;5.10;99.90;;;5.57;72.61;101358.31;5085689;28;20048;-83
2023/11/18 01:16:40;;;;;;;28.60;14.85;;;5.10;99.90;;;5.62;73.02;101371.91;5101439;28;20036;-83
2023/11/18 01:19:09;;;;;;;27.30;13.68;;;5.20;99.90;;;5.67;73.26;101364.31;5099990;28;20040;-83
2023/11/18 01:21:37;;;;;;;26.27;14.73;;;5.20;99.90;;;5.67;73.15;101377.53;5100391;28;20601;-83
2023/11/18 01:24:08;;;;;;;27.17;15.70;;;5.30;99.90;;;5.63;72.71;101372.72;5100036;28;20036;-83
2023/11/18 01:26:36;;;;;;;27.85;16.35;;;5.20;99.90;;;5.57;72.49;101374.19;5100696;28;20070;-83
2023/11/18 01:29:04;;;;;;;29.52;16.30;;;5.10;99.90;;;5.52;72.52;101375.63;5100622;28;20578;-83
2023/11/18 01:31:31;;;;;;;29.33;15.80;;;5.10;99.90;;;5.53;72.41;101387.88;5100163;28;20044;-84
2023/11/18 01:33:59;;;;;;;24.05;14.55;;;5.10;99.90;;;5.54;73.06;101389.53;5099893;28;20509;-83
2023/11/18 01:36:27;;;;;;;25.98;15.25;;;5.10;99.90;;;5.54;73.02;101398.28;5078925;28;20466;-83
2023/11/18 01:38:56;;;;;;;26.90;15.98;;;5.10;99.90;;;5.53;72.70;101407.22;5084053;28;20046;-83
2023/11/18 01:41:24;;;;;;;26.42;15.10;;;5.10;99.90;;;5.54;72.95;101400.13;5100547;28;20565;-84
2023/11/18 01:43:53;;;;;;;23.83;14.27;;;5.30;99.90;;;5.56;72.96;101404.28;5099865;28;20078;-83
2023/11/18 01:46:23;;;;;;;24.77;14.07;;;5.10;99.90;;;5.57;72.78;101405.94;5099496;28;20568;-83
2023/11/18 01:48:51;;;;;;;27.75;15.60;;;5.10;99.90;;;5.57;72.68;101411.22;5096445;28;20029;-83
2023/11/18 01:51:19;;;;;;;27.67;14.85;;;5.20;99.90;;;5.59;72.61;101397.84;5094274;28;20051;-83
2023/11/18 01:53:50;;;;;;;31.20;15.80;;;5.20;99.90;;;5.59;72.98;101396.00;5101181;28;20036;-84
2023/11/18 01:56:20;;;;;;;26.85;14.75;;;5.20;99.90;;;5.63;72.76;101401.84;5095083;28;20569;-83
2023/11/18 01:58:48;;;;;;;27.98;15.07;;;5.20;99.90;;;5.63;72.53;101393.91;5080648;28;20075;-84
2023/11/18 02:01:17;;;;;;;26.17;13.60;;;5.20;99.90;;;5.61;72.63;101390.56;5080971;28;20067;-83
2023/11/18 02:03:47;;;;;;;28.52;14.57;;;5.20;99.90;;;5.60;72.69;101392.38;5092894;28;20122;-83
2023/11/18 02:06:16;;;;;;;26.75;14.35;;;5.20;99.90;;;5.56;72.28;101383.13;5097394;28;20036;-83
2023/11/18 02:08:44;;;;;;;28.33;14.30;;;5.10;99.90;;;5.59;72.33;101390.72;5086628;28;20047;-83
2023/11/18 02:11:24;;;;;;;29.08;15.05;;;5.10;99.90;;;5.59;72.57;101385.44;5098762;28;20044;-83
2023/11/18 02:13:59;;;;;;;25.88;14.50;;;5.10;99.90;;;5.61;72.61;101377.31;5097705;28;20051;-83
2023/11/18 02:16:28;;;;;;;33.75;15.73;;;5.10;99.90;;;5.60;72.52;101384.44;5100774;28;20051;-83
2023/11/18 02:18:56;;;;;;;28.92;14.95;;;5.20;99.90;;;5.57;72.54;101382.13;5096976;28;20039;-83
2023/11/18 02:21:24;;;;;;;30.13;15.68;;;5.10;99.90;;;5.56;72.39;101380.47;5089929;28;20044;-83
2023/11/18 02:23:52;;;;;;;29.52;15.90;;;5.10;99.90;;;5.59;72.29;101374.03;5094330;28;20107;-83
2023/11/18 02:26:25;;;;;;;30.55;15.38;;;5.20;99.90;;;5.60;72.57;101375.66;5098105;28;20050;-83
2023/11/18 02:28:53;;;;;;;27.08;14.68;;;5.10;99.90;;;5.57;72.48;101382.13;5098392;28;20511;-83
2023/11/18 02:31:31;;;;;;;27.92;14.40;;;5.10;99.90;;;5.54;72.59;101369.19;5097838;28;20044;-83
2023/11/18 02:34:07;;;;;;;27.90;14.48;;;5.10;99.90;;;5.52;72.85;101373.81;5096036;28;20043;-83
2023/11/18 02:36:40;;;;;;;29.23;13.90;;;5.10;99.90;;;5.53;72.90;101372.00;5091222;28;20048;-83
2023/11/18 02:39:17;;;;;;;31.17;15.70;;;5.10;99.90;;;5.55;73.22;101376.13;5085844;28;20514;-83
2023/11/18 02:41:52;;;;;;;28.00;14.18;;;5.10;99.90;;;5.58;73.17;101367.06;5097271;28;20426;-83
2023/11/18 02:44:23;;;;;;;27.10;15.80;;;5.20;99.90;;;5.56;73.44;101366.38;5097764;28;20044;-83
2023/11/18 02:46:50;;;;;;;29.38;15.18;;;5.10;99.90;;;5.54;73.45;101353.31;5089016;28;20045;-83
2023/11/18 02:49:18;;;;;;;28.02;15.68;;;5.10;99.90;;;5.57;73.53;101358.31;5089037;28;20036;-83
2023/11/18 02:51:47;;;;;;;29.75;15.25;;;5.20;99.90;;;5.59;74.04;101369.56;5090805;28;20037;-84
2023/11/18 02:54:16;;;;;;;28.05;14.60;;;5.20;99.90;;;5.63;73.97;101376.19;5087012;28;20040;-83
2023/11/18 02:56:45;;;;;;;28.83;15.00;;;5.20;99.90;;;5.63;73.99;101370.91;5087233;28;20059;-83
2023/11/18 02:59:12;;;;;;;27.45;13.68;;;5.20;99.90;;;5.61;73.79;101380.81;5077646;28;20110;-83
2023/11/18 03:01:41;;;;;;;24.90;13.20;;;5.20;99.90;;;5.55;74.06;101378.78;5081685;28;20098;-83
2023/11/18 03:04:09;;;;;;;26.38;14.57;;;5.20;99.90;;;5.49;73.99;101386.53;5091853;28;20036;-83
2023/11/18 03:06:37;;;;;;;24.35;13.63;;;5.20;99.90;;;5.44;74.15;101379.06;5080449;28;20067;-83
2023/11/18 03:09:07;;;;;;;25.80;13.60;;;5.10;99.90;;;5.43;74.50;101372.09;5097911;28;20123;-83
2023/11/18 03:11:34;;;;;;;27.17;14.75;;;5.10;99.90;;;5.40;74.61;101367.13;5097409;28;20503;-84
2023/11/18 03:14:04;;;;;;;29.02;14.60;;;5.10;99.90;;;5.41;74.34;101355.53;5088658;28;20581;-83
2023/11/18 03:16:32;;;;;;;27.95;14.90;;;5.10;99.90;;;5.45;74.76;101346.31;5093844;28;20052;-83
2023/11/18 03:18:59;;;;;;;27.25;14.68;;;5.10;99.90;;;5.46;74.41;101345.31;5096069;28;20507;-83
2023/11/18 03:21:28;;;;;;;28.05;14.57;;;5.10;99.90;;;5.48;74.39;101343.38;5090942;28;20047;-83
2023/11/18 03:23:56;;;;;;;27.05;13.38;;;5.10;99.90;;;5.50;74.54;101333.44;5095010;28;20044;-83
2023/11/18 03:26:23;;;;;;;25.33;13.55;;;5.10;99.90;;;5.51;74.26;101331.63;5096656;28;20035;-83
2023/11/18 03:28:51;;;;;;;26.25;13.55;;;5.10;99.90;;;5.52;74.73;101334.13;5081377;28;20143;-84
2023/11/18 03:31:20;;;;;;;25.80;14.20;;;5.20;99.90;;;5.56;74.79;101335.50;5075525;28;20048;-83
2023/11/18 03:33:47;;;;;;;24.00;13.18;;;5.20;99.90;;;5.59;74.92;101319.28;5082739;28;20488;-83
2023/11/18 03:36:17;;;;;;;22.73;13.10;;;5.20;99.90;;;5.66;74.98;101320.31;5097061;28;20040;-83
2023/11/18 03:38:45;;;;;;;25.42;13.93;;;5.30;99.90;;;5.72;75.04;101318.03;5095311;28;20040;-83
2023/11/18 03:41:13;;;;;;;23.08;13.45;;;5.40;99.90;;;5.73;76.05;101317.88;5092052;28;20025;-83
2023/11/18 03:43:41;;;;;;;27.17;14.00;;;5.60;99.90;;;5.78;76.32;101330.63;5085579;28;20069;-83
2023/11/18 03:46:08;;;;;;;24.23;12.93;;;5.50;99.90;;;5.81;76.32;101325.84;5083523;28;20037;-83
2023/11/18 03:48:38;;;;;;;25.95;14.13;;;5.50;99.90;;;5.85;76.34;101319.22;5094175;28;20047;-83
2023/11/18 03:51:06;;;;;;;25.55;13.52;;;5.50;99.90;;;5.89;76.25;101322.38;5079702;28;20059;-83
2023/11/18 03:53:34;;;;;;;25.50;13.52;;;5.60;99.90;;;5.89;76.05;101333.81;5075946;28;20040;-83
2023/11/18 03:56:02;;;;;;;22.92;12.73;;;5.60;99.90;;;5.87;75.59;101340.25;5093679;28;20125;-84
2023/11/18 03:58:29;;;;;;;22.05;12.80;;;5.50;99.90;;;5.82;75.47;101345.19;5095825;28;20044;-84
2023/11/18 04:00:57;;;;;;;24.63;13.50;;;5.50;99.90;;;5.78;75.54;101343.84;5089267;28;20040;-83
2023/11/18 04:03:24;;;;;;;24.20;13.02;;;5.50;99.90;;;5.75;75.23;101357.38;5076059;28;20048;-84
2023/11/18 04:05:53;;;;;;;23.00;13.45;;;5.40;99.90;;;5.71;75.29;101348.09;5095989;28;20063;-83
2023/11/18 04:08:21;;;;;;;25.17;14.07;;;5.40;99.90;;;5.74;75.75;101339.84;5097266;28;20047;-84
2023/11/18 04:10:48;;;;;;;25.52;13.23;;;5.40;99.90;;;5.79;75.78;101345.50;5096686;28;20040;-83
2023/11/18 04:13:15;;;;;;;26.08;14.23;;;5.50;99.90;;;5.83;76.35;101347.69;5098823;28;20069;-84
2023/11/18 04:15:45;;;;;;;23.95;13.20;;;5.50;99.90;;;5.86;76.32;101343.91;5079665;28;20059;-83
2023/11/18 04:18:12;;;;;;;25.63;13.90;;;5.50;99.90;;;5.84;76.68;101348.50;5078907;28;20105;-84
2023/11/18 04:20:39;;;;;;;28.23;14.50;;;5.50;99.90;;;5.85;77.21;101347.50;5093791;28;20040;-83
2023/11/18 04:23:08;;;;;;;25.25;13.35;;;5.50;99.90;;;5.87;77.39;101346.38;5076825;28;20119;-83
2023/11/18 04:25:36;;;;;;;29.48;13.90;;;5.60;99.90;;;5.89;77.18;101340.91;5078027;28;20102;-83
2023/11/18 04:28:04;;;;;;;26.98;15.10;;;5.60;99.90;;;5.91;77.14;101338.97;5082302;28;20033;-84
2023/11/18 04:30:32;;;;;;;25.55;14.93;;;5.60;99.90;;;5.94;77.20;101336.00;5101448;28;20047;-84
2023/11/18 04:33:00;;;;;;;24.27;13.80;;;5.60;99.90;;;5.98;77.15;101329.41;5101099;28;20036;-84
2023/11/18 04:35:27;;;;;;;26.33;14.10;;;5.70;99.90;;;6.00;76.85;101319.47;5085934;28;20048;-84
2023/11/18 04:37:55;;;;;;;27.13;14.73;;;5.70;99.90;;;6.00;76.88;101308.06;5100712;28;20040;-83
2023/11/18 04:40:24;;;;;;;26.23;15.02;;;5.70;99.90;;;6.00;77.02;101303.59;5099849;28;20086;-84
2023/11/18 04:42:51;;;;;;;25.17;14.27;;;5.70;99.90;;;6.03;76.96;101295.34;5082577;28;20040;-83
2023/11/18 04:45:18;;;;;;;28.00;14.55;;;5.70;99.90;;;6.05;76.81;101293.38;5087350;28;20054;-84
2023/11/18 04:47:46;;;;;;;26.80;14.38;;;5.70;99.90;;;6.05;76.94;101287.22;5081640;28;20048;-84
2023/11/18 04:50:14;;;;;;;23.75;13.27;;;5.70;99.90;;;6.04;77.10;101282.91;5079480;28;20389;-84
2023/11/18 04:52:41;;;;;;;24.85;14.60;;;5.70;99.90;;;6.06;76.99;101289.72;5082475;28;20044;-84
2023/11/18 04:55:13;;;;;;;24.83;13.95;;;5.80;99.90;;;6.08;76.47;101286.91;5080403;28;20143;-84
2023/11/18 04:57:41;;;;;;;26.55;14.93;;;5.70;99.90;;;6.08;76.38;101282.44;5081282;28;20442;-83
2023/11/18 05:00:11;;;;;;;25.52;13.85;;;5.70;99.90;;;6.09;76.25;101275.31;5101340;28;20064;-84
2023/11/18 05:02:39;;;;;;;26.05;13.93;;;5.70;99.90;;;6.06;76.10;101273.84;5100509;28;20413;-84
2023/11/18 05:05:07;;;;;;;29.10;14.40;;;5.70;99.90;;;6.07;76.26;101262.25;5092039;28;20040;-83
2023/11/18 05:07:35;;;;;;;25.48;14.60;;;5.70;99.90;;;6.07;76.06;101256.13;5090835;28;20102;-84
2023/11/18 05:10:02;;;;;;;25.98;14.50;;;5.70;99.90;;;6.08;76.30;101261.25;5085309;28;20104;-83
2023/11/18 05:12:30;;;;;;;26.83;15.43;;;5.70;99.90;;;6.05;76.58;101263.38;5101369;28;20040;-84
2023/11/18 05:14:59;;;;;;;25.58;14.30;;;5.70;99.90;;;6.02;77.07;101256.63;5088897;28;20043;-83
2023/11/18 05:17:27;;;;;;;28.13;14.82;;;5.70;99.90;;;6.04;77.07;101245.84;5082219;28;20044;-83
2023/11/18 05:19:55;;;;;;;25.85;14.75;;;5.80;99.90;;;6.08;77.54;101240.06;5081174;28;20036;-84
2023/11/18 05:22:22;;;;;;;26.75;14.68;;;5.80;99.90;;;6.11;77.19;101247.69;5088533;28;20043;-84
2023/11/18 05:24:49;;;;;;;28.52;14.65;;;5.90;99.90;;;6.14;77.35;101252.66;5098356;28;20070;-83
2023/11/18 05:27:18;;;;;;;28.45;15.07;;;5.90;99.90;;;6.16;77.04;101248.03;5095512;28;20063;-84
2023/11/18 05:29:48;;;;;;;25.00;14.02;;;5.90;99.90;;;6.17;77.20;101231.16;5080995;28;20040;-84
2023/11/18 05:32:17;;;;;;;26.38;13.93;;;5.90;99.90;;;6.17;76.92;101228.50;5081129;28;20109;-83
2023/11/18 05:34:44;;;;;;;24.60;14.43;;;5.90;99.90;;;6.18;76.70;101229.31;5098945;28;20089;-84
2023/11/18 05:37:12;;;;;;;27.08;14.85;;;5.90;99.90;;;6.18;76.72;101230.16;5093546;28;20514;-83
2023/11/18 05:39:43;;;;;;;25.35;13.88;;;5.80;99.90;;;6.17;76.76;101232.97;5082845;28;20044;-83
2023/11/18 05:42:11;;;;;;;26.33;13.80;;;5.80;99.90;;;6.16;76.98;101232.16;5081586;28;20045;-83
2023/11/18 05:44:39;;;;;;;25.30;14.02;;;5.80;99.90;;;6.17;77.18;101238.28;5096178;28;20032;-83
2023/11/18 05:47:07;;;;;;;26.88;14.18;;;5.80;99.90;;;6.18;77.29;101235.44;5099246;28;20123;-84
2023/11/18 05:49:36;;;;;;;23.98;14.02;;;5.90;99.90;;;6.21;77.21;101241.44;5100407;28;20063;-83
2023/11/18 05:52:04;;;;;;;26.08;14.30;;;5.90;99.90;;;6.22;77.59;101245.72;5099694;28;20044;-85
2023/11/18 05:54:32;;;;;;;26.90;14.88;;;5.90;99.90;;;6.22;77.51;101245.72;5097032;28;20046;-83
2023/11/18 05:56:59;;;;;;;25.55;14.55;;;5.90;99.90;;;6.22;77.66;101241.25;5098754;28;20036;-83
2023/11/18 05:59:27;;;;;;;28.00;14.82;;;5.90;99.90;;;6.22;77.77;101246.56;5086101;28;20037;-87
2023/11/18 06:01:56;;;;;;;27.55;15.05;;;5.90;99.90;;;6.23;77.99;101234.13;5081557;28;20491;-84
2023/11/18 06:04:25;;;;;;;26.35;14.82;;;5.90;99.90;;;6.24;77.85;101233.97;5092248;28;20085;-85
2023/11/18 06:06:54;;;;;;;25.95;14.13;;;6.00;99.90;;;6.25;77.79;101225.06;5092718;28;20454;-82
2023/11/18 06:09:25;;;;;;;27.65;15.63;;;5.80;99.90;;;6.25;77.93;101219.75;5090403;28;20032;-83
2023/11/18 06:11:53;;;;;;;28.10;14.73;;;6.00;99.90;;;6.27;77.60;101222.22;5100708;28;20422;-83
2023/11/18 06:14:20;;;;;;;29.35;15.32;;;5.90;99.90;;;6.27;77.84;101225.69;5099703;28;20087;-82
2023/11/18 06:16:50;;;;;;;31.25;17.17;;;5.90;99.90;;;6.21;77.80;101223.72;5100844;28;20066;-83
2023/11/18 06:19:18;;;;;;;28.55;15.32;;;5.90;99.90;;;6.18;78.68;101227.50;5113091;28;20058;-83
2023/11/18 06:21:46;;;;;;;31.83;16.52;;;6.00;99.90;;;6.16;78.84;101218.09;5079665;28;20032;-83
2023/11/18 06:24:17;;;;;;;30.27;16.35;;;5.90;99.90;;;6.17;78.96;101204.66;5096488;28;20136;-83
2023/11/18 06:26:44;;;;;;;27.95;15.38;;;6.00;99.90;;;6.21;79.30;101196.41;5097437;28;20043;-83
2023/11/18 06:29:12;;;;;;;30.13;15.63;;;6.00;99.90;;;6.25;79.54;101193.25;5097304;28;20044;-82
2023/11/18 06:31:40;;;;;;;27.70;14.45;;;6.00;99.90;;;6.28;79.68;101194.75;5097390;28;20043;-83
2023/11/18 06:34:07;;;;;;;28.90;15.02;;;6.00;99.90;;;6.31;79.54;101202.38;5098974;28;20044;-83
2023/11/18 06:36:35;;;;;;;25.33;14.55;;;6.10;99.90;;;6.32;79.35;101211.97;5086254;28;20055;-83
2023/11/18 06:39:04;;;;;;;24.02;13.98;;;6.10;99.90;;;6.35;79.16;101216.94;5095590;28;20105;-84
2023/11/18 06:41:34;;;;;;;29.52;15.45;;;6.10;99.90;;;6.36;79.31;101213.28;5085607;28;20082;-82
2023/11/18 06:44:08;;;;;;;26.98;14.65;;;6.10;99.90;;;6.36;79.26;101210.66;5079018;28;20037;-83
2023/11/18 06:46:39;;;;;;;26.55;15.32;;;6.10;99.90;;;6.36;79.44;101213.28;5086039;28;20051;-83
2023/11/18 06:49:07;;;;;;;25.90;14.45;;;6.10;99.90;;;6.38;79.46;101213.94;5080603;28;20055;-84
2023/11/18 06:51:37;;;;;;;27.23;14.15;;;6.20;99.90;;;6.40;79.24;101215.44;5077575;28;20041;-83
2023/11/18 06:54:08;;;;;;;25.35;14.98;;;6.20;99.90;;;6.41;79.26;101203.03;5077994;28;20056;-86
2023/11/18 06:56:38;;;;;;;26.92;14.82;;;6.20;99.90;;;6.41;79.25;101201.19;5091325;28;20044;-84
2023/11/18 06:59:07;;;;;;;26.45;14.82;;;6.20;99.90;;;6.42;79.51;101207.31;5098875;28;20130;-82
2023/11/18 07:01:35;;;;;;;25.95;14.27;;;6.20;99.90;;;6.44;79.34;101207.97;5090832;28;20032;-83
2023/11/18 07:04:02;;;;;;;24.60;14.07;;;6.20;99.90;;;6.45;79.37;101214.94;5086859;28;20040;-83
2023/11/18 07:06:31;;;;;;;28.10;15.07;;;6.20;99.90;;;6.45;79.44;101199.06;5085213;28;20049;-83
2023/11/18 07:09:00;;;;;;;26.77;14.73;;;6.20;99.90;;;6.42;79.55;101215.28;5095134;28;20038;-84
2023/11/18 07:11:28;;;;;;;25.27;14.48;;;6.20;99.90;;;6.38;79.79;101224.53;5091429;28;20040;-83
2023/11/18 07:13:59;;;;;;;23.67;14.15;;;6.10;99.90;;;6.41;79.86;101230.34;5090595;28;20071;-84
2023/11/18 07:16:26;;;;;;;25.42;14.45;;;6.20;99.90;;;6.45;79.74;101230.84;5094465;28;20415;-84
2023/11/18 07:18:54;;;;;;;27.38;14.05;;;6.20;99.90;;;6.48;79.72;101238.44;5096082;28;20080;-85
2023/11/18 07:21:22;;;;;;;26.17;13.98;;;6.30;99.90;;;6.50;79.61;101238.31;5095457;28;20044;-84
2023/11/18 07:23:50;;;;;;;25.10;14.60;;;6.30;99.90;;;6.51;79.79;101219.59;5078187;28;20049;-83
2023/11/18 07:26:17;;;;;;;26.80;14.35;;;6.30;99.90;;;6.53;79.91;101217.59;5078134;28;20044;-85
2023/11/18 07:28:45;;;;;;;24.02;13.88;;;6.30;99.90;;;6.53;80.05;101217.59;5085611;28;20075;-87
2023/11/18 07:31:14;;;;;;;24.90;14.00;;;6.30;99.90;;;6.56;79.97;101232.34;5093761;28;20032;-87
2023/11/18 07:33:44;;;;;;;23.63;13.43;;;6.40;99.90;;;6.59;80.03;101235.50;5100509;28;20134;-83
2023/11/18 07:36:12;;;;;;;25.38;13.77;;;6.40;99.90;;;6.61;79.95;101241.44;5100373;28;20040;-83
2023/11/18 07:38:40;;;;;;;24.83;13.50;;;6.40;99.90;;;6.63;79.81;101236.78;5106183;28;20103;-83
2023/11/18 07:41:08;;;;;;;28.10;13.90;;;6.40;99.90;;;6.63;80.28;101225.38;5098390;28;20107;-82
2023/11/18 07:43:37;;;;;;;24.55;13.90;;;6.40;99.90;;;6.64;80.06;101217.25;5097722;28;20051;-83
2023/11/18 07:46:07;;;;;;;27.00;13.48;;;6.40;99.90;;;6.65;80.17;101204.84;5095781;28;20047;-84
2023/11/18 07:48:36;;;;;;;22.55;12.15;;;6.50;99.90;;;6.64;80.59;101196.06;5103362;28;20067;-83
2023/11/18 07:51:04;;;;;;;24.15;13.10;;;6.50;99.90;;;6.65;80.54;101192.41;5101852;28;20044;-83
2023/11/18 07:53:32;;;;;;;22.35;13.07;;;6.50;99.90;;;6.66;80.47;101194.06;5100559;28;20044;-83
2023/11/18 07:56:01;;;;;;;22.77;12.57;;;6.50;99.90;;;6.67;80.34;101193.06;5105537;28;20511;-83
2023/11/18 07:58:28;;;;;;;23.48;12.65;;;6.70;99.90;;;6.70;80.62;101199.84;5100223;28;20127;-83
2023/11/18 08:00:56;;;;;;;22.75;12.88;;;6.60;99.90;;;6.72;80.43;101195.22;5104453;28;20036;-83
2023/11/18 08:03:23;;;;;;;21.88;12.38;;;6.60;99.90;;;6.75;80.37;101197.53;5105571;28;20054;-82
2023/11/18 08:05:52;;;;;;;19.77;11.50;;;6.60;99.90;;;6.76;80.76;101180.63;5104044;28;20048;-82
2023/11/18 08:08:20;;;;;;;21.88;11.35;;;6.60;99.90;;;6.80;80.48;101175.81;5106090;28;20063;-82
2023/11/18 08:10:50;;;;;;;18.65;11.25;;;6.60;99.90;;;6.82;80.67;101184.41;5106050;28;20040;-82
2023/11/18 08:13:18;;;;;;;19.90;11.07;;;6.70;99.90;;;6.79;80.34;101190.91;5106486;28;20043;-82
2023/11/18 08:15:46;;;;;;;23.35;11.85;;;6.70;99.90;;;6.80;80.51;101195.19;5101742;28;20043;-83
2023/11/18 08:18:14;;;;;;;22.17;11.25;;;6.70;99.90;;;6.80;80.56;101194.38;5106047;28;20036;-83
2023/11/18 08:20:43;;;;;;;23.30;11.98;;;6.70;99.90;;;6.68;80.87;101202.66;5099052;28;20044;-83
2023/11/18 08:23:12;;;;;;;23.92;11.68;;;6.70;99.90;;;6.67;81.47;101206.31;5099108;28;20127;-83
2023/11/18 08:25:40;;;;;;;23.52;11.25;;;6.70;99.90;;;6.75;81.44;101196.72;5098087;28;20044;-83
2023/11/18 08:28:09;;;;;;;22.75;11.05;;;6.70;99.90;;;6.80;81.42;101194.38;5100074;28;20499;-88
2023/11/18 08:30:39;;;;;;;21.02;10.98;;;6.70;99.90;;;6.84;81.63;101193.88;5098328;28;20087;-84
2023/11/18 08:33:08;;;;;;;21.60;10.50;;;6.70;99.90;;;6.87;81.48;101198.81;5101707;28;20075;-84
2023/11/18 08:35:36;;;;;;;21.25;11.05;;;6.80;99.90;;;6.80;81.07;101197.84;5097801;28;20041;-85
2023/11/18 08:38:04;;;;;;;24.83;11.13;;;6.80;99.90;;;6.82;81.46;101195.84;5091465;28;20040;-85
2023/11/18 08:40:34;;;;;;;22.73;11.82;;;6.80;99.90;;;6.87;81.42;101196.16;5090992;28;20044;-84
2023/11/18 08:43:04;;;;;;;22.17;11.05;;;6.80;99.90;;;6.80;81.73;101189.91;5094872;28;20567;-84
2023/11/18 08:45:37;;;;;;;18.73;10.52;;;6.80;99.90;;;6.87;81.61;101192.69;5092188;28;20040;-84
2023/11/18 08:48:07;;;;;;;21.15;10.13;;;6.80;99.90;;;6.91;81.83;101184.22;5094826;28;20043;-84
2023/11/18 08:50:36;;;;;;;18.73;9.73;;;6.80;99.90;;;6.95;81.87;101190.03;5089494;28;20050;-84
2023/11/18 08:53:05;;;;;;;20.52;11.48;;;6.80;99.90;;;6.97;81.88;101183.53;5092190;28;20040;-85
2023/11/18 08:55:41;;;;;;;20.00;11.88;;;6.90;99.90;;;7.00;81.83;101184.22;5096956;28;20097;-84
2023/11/18 08:58:18;;;;;;;21.38;11.73;;;6.90;99.90;;;7.00;81.81;101186.88;5095858;28;20473;-87
2023/11/18 09:00:47;;;;;;;19.45;10.95;;;6.90;99.90;;;6.98;81.65;101195.00;5091657;28;20529;-85
2023/11/18 09:03:24;;;;;;;21.98;11.70;;;6.90;99.90;;;7.00;81.54;101186.88;5092047;28;20043;-85
2023/11/18 09:06:03;;;;;;;23.70;10.85;;;6.90;99.90;;;6.93;81.64;101176.13;5095227;28;20051;-85
2023/11/18 09:08:34;;;;;;;18.95;10.90;;;6.90;99.90;;;6.93;81.58;101168.19;5092700;28;20048;-86
2023/11/18 09:11:04;;;;;;;;;;;6.90;99.90;;;6.93;81.67;101171.66;5097431;28;20441;-85
2023/11/18 09:13:34;;;;;;;26.23;15.70;;;6.90;99.90;;;6.93;81.80;101168.19;5095864;28;19951;-86
2023/11/18 09:16:06;;;;;;;22.38;11.95;;;6.90;99.90;;;6.90;81.64;101161.38;5091861;28;20112;-86
2023/11/18 09:18:35;;;;;;;23.05;12.95;;;6.90;99.90;;;6.81;81.19;101143.00;5095490;28;20040;-84
2023/11/18 09:21:05;;;;;;;24.58;14.77;;;6.90;99.90;;;6.84;81.68;101143.50;5102406;28;20036;-83
2023/11/18 09:23:34;;;;;;;18.40;10.02;;;6.90;99.90;;;6.88;81.64;101141.31;5103281;28;20499;-83
2023/11/18 09:26:07;;;;;;;22.40;13.95;;;6.90;99.90;;;6.80;81.75;101136.88;5102015;28;20040;-84
2023/11/18 09:28:40;;;;;;;17.73;10.68;;;6.90;99.90;;;6.82;81.97;101134.88;5099741;28;20048;-84
2023/11/18 09:31:13;;;;;;;19.70;9.95;;;6.90;99.90;;;6.85;82.15;101134.53;5102455;28;20036;-84
2023/11/18 09:33:46;;;;;;;16.58;8.48;;;6.90;99.90;;;6.89;81.90;101133.22;5098788;28;20066;-84
2023/11/18 09:36:14;;;;;;;19.40;8.65;;;6.90;99.90;;;6.86;82.01;101128.25;5097276;28;20044;-84
2023/11/18 09:38:46;;;;;;;17.88;7.78;;;6.90;99.90;;;6.83;81.98;101127.75;5099431;28;20441;-84
2023/11/18 09:41:15;;;;;;;14.13;8.25;;;7.00;99.90;;;6.88;81.92;101133.34;5103288;28;20092;-84
2023/11/18 09:43:46;;;;;;;17.88;8.15;;;7.00;99.90;;;6.83;81.74;101128.59;5104539;28;20077;-84
2023/11/18 09:46:15;;;;;;;15.77;7.80;;;7.00;99.90;;;6.86;82.45;101136.19;5096024;28;20047;-84
2023/11/18 09:48:46;;;;;;;15.88;7.93;;;7.00;99.90;;;6.91;82.41;101133.84;5088537;28;20032;-84
2023/11/18 09:51:21;;;;;;;20.10;8.23;;;7.00;99.90;;;7.00;82.54;101150.56;5094610;28;20042;-84
2023/11/18 09:53:53;;;;;;;17.23;7.82;;;7.00;99.90;;;7.00;82.54;101155.88;5105032;28;20032;-84
2023/11/18 09:56:38;;;;;;;18.02;8.15;;;7.00;99.90;;;7.00;82.56;101139.97;5103859;28;20142;-84
2023/11/18 09:59:15;;;;;;;15.20;7.68;;;7.10;99.90;;;7.05;82.59;101142.09;5081847;28;20060;-84
2023/11/18 10:01:46;;;;;;;15.32;8.00;;;7.10;99.90;;;7.10;82.57;101137.94;5082070;28;20060;-84
2023/11/18 10:04:17;;;;;;;17.55;7.88;;;7.10;99.90;;;7.08;82.55;101134.63;5083663;28;20040;-84
2023/11/18 10:06:46;;;;;;;13.65;6.55;;;7.10;99.90;;;7.05;82.36;101124.38;5095855;28;20044;-84
2023/11/18 10:09:18;;;;;;;14.60;7.32;;;7.20;99.90;;;7.05;82.25;101129.66;5080752;28;20064;-85
2023/11/18 10:11:49;;;;;;;15.45;7.30;;;7.20;99.90;;;7.10;82.47;101134.47;5097565;28;20032;-85
2023/11/18 10:14:17;;;;;;;19.40;7.47;;;7.20;99.90;;;7.13;82.58;101127.00;5095955;28;20063;-83
2023/11/18 10:16:47;;;;;;;12.30;6.78;;;7.30;99.90;;;7.18;82.95;101113.22;5089126;28;20044;-83
2023/11/18 10:19:16;;;;;;;14.55;6.47;;;7.30;99.90;;;7.24;82.92;101112.50;5087542;28;20048;-83